createdAt,value
2024-01-15T00:00:33.633Z,5.78
2024-01-15T00:03:00.455Z,5.77
2024-01-15T00:05:27.388Z,5.73
2024-01-15T00:07:54.191Z,5.72
2024-01-15T00:10:20.998Z,5.73
2024-01-15T00:12:48.208Z,5.66
2024-01-15T00:15:15.024Z,5.62
2024-01-15T00:17:42.666Z,5.64
2024-01-15T00:20:09.981Z,5.62
2024-01-15T00:22:37.145Z,5.61
2024-01-15T00:25:04.694Z,5.57
2024-01-15T00:27:31.618Z,5.53
2024-01-15T00:29:58.531Z,5.47
2024-01-15T00:32:25.524Z,5.44
2024-01-15T00:34:52.504Z,5.44
2024-01-15T00:37:20.118Z,5.43
2024-01-15T00:39:47.165Z,5.38
2024-01-15T00:42:14.119Z,5.36
2024-01-15T00:44:41.037Z,5.32
2024-01-15T00:47:07.797Z,5.27
2024-01-15T00:49:34.817Z,5.22
2024-01-15T00:52:01.784Z,5.17
2024-01-15T00:54:28.591Z,5.13
2024-01-15T00:56:56.356Z,5.12
2024-01-15T00:59:23.238Z,5.10
2024-01-15T01:01:50.135Z,5.08
2024-01-15T01:04:18.268Z,5.03
2024-01-15T01:06:45.242Z,4.97
2024-01-15T01:09:12.375Z,4.96
2024-01-15T01:11:39.373Z,4.95
2024-01-15T01:14:06.770Z,4.95
2024-01-15T01:16:48.926Z,4.93
2024-01-15T01:19:26.517Z,4.94
2024-01-15T01:21:53.531Z,4.91
2024-01-15T01:24:20.561Z,4.84
2024-01-15T01:26:48.381Z,4.84
2024-01-15T01:29:15.269Z,4.83
2024-01-15T01:31:45.892Z,4.81
2024-01-15T01:34:15.567Z,4.83
2024-01-15T01:36:56.130Z,4.82
2024-01-15T01:39:28.710Z,4.80
2024-01-15T01:41:55.623Z,4.80
2024-01-15T01:44:22.416Z,4.77
2024-01-15T01:46:49.401Z,4.78
2024-01-15T01:49:16.669Z,4.75
2024-01-15T01:51:43.717Z,4.79
2024-01-15T01:54:13.180Z,4.76
2024-01-15T01:56:40.069Z,4.77
2024-01-15T01:59:07.385Z,4.78
2024-01-15T02:01:34.498Z,4.76
2024-01-15T02:04:02.097Z,4.76
2024-01-15T02:06:29.521Z,4.77
2024-01-15T02:08:56.934Z,4.76
2024-01-15T02:11:23.758Z,4.71
2024-01-15T02:13:51.050Z,4.68
2024-01-15T02:16:17.852Z,4.71
2024-01-15T02:18:45.651Z,4.74
2024-01-15T02:21:13.380Z,4.73
2024-01-15T02:23:40.529Z,4.69
2024-01-15T02:26:07.837Z,4.65
2024-01-15T02:28:34.829Z,4.60
2024-01-15T02:31:02.001Z,4.58
2024-01-15T02:33:29.120Z,4.52
2024-01-15T02:35:56.181Z,4.51
2024-01-15T02:38:23.349Z,4.50
2024-01-15T02:40:51.149Z,4.49
2024-01-15T02:43:18.042Z,4.47
2024-01-15T02:45:44.893Z,4.47
2024-01-15T02:48:11.921Z,4.45
2024-01-15T02:50:38.921Z,4.40
2024-01-15T02:53:06.001Z,4.43
2024-01-15T02:55:32.753Z,4.42
2024-01-15T02:57:59.604Z,4.39
2024-01-15T03:00:26.590Z,4.34
2024-01-15T03:02:53.570Z,4.37
2024-01-15T03:05:21.597Z,4.30
2024-01-15T03:07:49.241Z,4.30
2024-01-15T03:10:16.408Z,4.30
2024-01-15T03:12:43.358Z,4.27
2024-01-15T03:15:10.417Z,4.23
2024-01-15T03:17:37.330Z,4.23
2024-01-15T03:20:04.795Z,4.25
2024-01-15T03:22:31.803Z,4.25
2024-01-15T03:24:59.264Z,4.19
2024-01-15T03:27:27.487Z,4.15
2024-01-15T03:29:54.494Z,4.13
2024-01-15T03:32:21.333Z,4.11
2024-01-15T03:34:49.074Z,4.06
2024-01-15T03:37:15.949Z,4.01
2024-01-15T03:39:43.008Z,4.03
2024-01-15T03:42:09.978Z,4.03
2024-01-15T03:44:36.800Z,4.02
2024-01-15T03:47:03.778Z,3.98
2024-01-15T03:49:30.579Z,4.00
2024-01-15T03:51:57.750Z,3.99
2024-01-15T03:54:24.675Z,4.03
2024-01-15T03:56:51.510Z,4.02
2024-01-15T03:59:18.308Z,4.02
2024-01-15T04:01:52.268Z,4.03
2024-01-15T04:04:19.668Z,4.02
2024-01-15T04:06:47.016Z,3.94
2024-01-15T04:09:15.169Z,3.91
2024-01-15T04:11:42.216Z,3.87
2024-01-15T04:14:09.055Z,3.84
2024-01-15T04:16:36.085Z,3.81
2024-01-15T04:19:03.043Z,3.79
2024-01-15T04:21:29.997Z,3.76
2024-01-15T04:23:56.908Z,3.78
2024-01-15T04:26:23.754Z,3.73
2024-01-15T04:28:50.732Z,3.76
2024-01-15T04:31:28.893Z,3.74
2024-01-15T04:33:56.070Z,3.74
2024-01-15T04:36:23.197Z,3.75
2024-01-15T04:38:50.333Z,3.78
2024-01-15T04:41:17.567Z,3.79
2024-01-15T04:43:44.374Z,3.79
2024-01-15T04:46:11.386Z,3.76
2024-01-15T04:48:38.442Z,3.74
2024-01-15T04:51:08.888Z,3.78
2024-01-15T04:53:36.190Z,3.79
2024-01-15T04:56:03.143Z,3.79
2024-01-15T04:58:30.607Z,3.76
2024-01-15T05:00:57.830Z,3.76
2024-01-15T05:03:25.066Z,3.74
2024-01-15T05:05:52.296Z,3.76
2024-01-15T05:08:19.144Z,3.75
2024-01-15T05:10:46.494Z,3.71
2024-01-15T05:13:13.378Z,3.65
2024-01-15T05:15:40.535Z,3.63
2024-01-15T05:18:08.389Z,3.63
2024-01-15T05:20:35.916Z,3.63
2024-01-15T05:23:02.845Z,3.60
2024-01-15T05:25:29.704Z,3.59
2024-01-15T05:27:56.698Z,3.56
2024-01-15T05:30:23.729Z,3.55
2024-01-15T05:32:50.713Z,3.51
2024-01-15T05:35:17.536Z,3.51
2024-01-15T05:37:45.709Z,3.53
2024-01-15T05:40:14.343Z,3.52
2024-01-15T05:42:41.816Z,3.49
2024-01-15T05:45:08.937Z,3.49
2024-01-15T05:47:35.984Z,3.49
2024-01-15T05:50:03.820Z,3.49
2024-01-15T05:52:34.715Z,3.45
2024-01-15T05:55:09.384Z,3.50
2024-01-15T05:57:38.718Z,3.51
2024-01-15T06:00:06.357Z,3.52
2024-01-15T06:02:33.212Z,3.51
2024-01-15T06:05:00.407Z,3.50
2024-01-15T06:07:27.238Z,3.51
2024-01-15T06:09:54.157Z,3.51
2024-01-15T06:12:21.059Z,3.52
2024-01-15T06:14:48.170Z,3.55
2024-01-15T06:17:15.048Z,3.55
2024-01-15T06:19:42.044Z,3.56
2024-01-15T06:22:09.115Z,3.53
2024-01-15T06:24:35.907Z,3.49
2024-01-15T06:27:02.935Z,3.48
2024-01-15T06:29:29.774Z,3.44
2024-01-15T06:31:56.670Z,3.42
2024-01-15T06:34:23.628Z,3.41
2024-01-15T06:36:50.771Z,3.39
2024-01-15T06:39:17.862Z,3.39
2024-01-15T06:41:45.190Z,3.44
2024-01-15T06:44:14.954Z,3.43
2024-01-15T06:46:45.277Z,3.48
2024-01-15T06:49:12.630Z,3.45
2024-01-15T06:51:39.811Z,3.45
2024-01-15T06:54:06.824Z,3.43
2024-01-15T06:56:33.771Z,3.47
2024-01-15T06:59:00.638Z,3.50
2024-01-15T07:01:27.481Z,3.49
2024-01-15T07:03:54.439Z,3.48
2024-01-15T07:06:21.424Z,3.47
2024-01-15T07:08:48.402Z,3.49
2024-01-15T07:11:19.697Z,3.45
2024-01-15T07:13:49.647Z,3.45
2024-01-15T07:16:30.100Z,3.48
2024-01-15T07:19:03.959Z,3.45
2024-01-15T07:21:31.580Z,3.45
2024-01-15T07:23:58.365Z,3.47
2024-01-15T07:26:25.314Z,3.45
2024-01-15T07:28:52.365Z,3.43
2024-01-15T07:31:23.484Z,3.42
2024-01-15T07:33:50.462Z,3.39
2024-01-15T07:36:17.479Z,3.39
2024-01-15T07:38:44.488Z,3.37
2024-01-15T07:41:11.435Z,3.34
2024-01-15T07:43:39.848Z,3.32
2024-01-15T07:46:06.748Z,3.33
2024-01-15T07:48:33.891Z,3.34
2024-01-15T07:51:01.287Z,3.36
2024-01-15T07:53:29.357Z,3.35
2024-01-15T07:55:56.444Z,3.39
2024-01-15T07:58:23.439Z,3.37
2024-01-15T08:00:50.376Z,3.34
2024-01-15T08:03:17.236Z,3.33
2024-01-15T08:05:44.053Z,3.35
2024-01-15T08:08:11.037Z,3.37
2024-01-15T08:10:37.905Z,3.33
2024-01-15T08:13:04.964Z,3.33
2024-01-15T08:15:32.250Z,3.33
2024-01-15T08:17:59.985Z,3.32
2024-01-15T08:20:27.302Z,3.34
2024-01-15T08:22:54.329Z,3.36
2024-01-15T08:25:21.198Z,3.39
2024-01-15T08:27:48.602Z,3.37
2024-01-15T08:30:15.974Z,3.42
2024-01-15T08:32:44.155Z,3.43
2024-01-15T08:35:14.702Z,3.43
2024-01-15T08:37:41.653Z,3.44
2024-01-15T08:40:08.716Z,3.49
2024-01-15T08:42:35.631Z,3.53
2024-01-15T08:45:03.298Z,3.56
2024-01-15T08:47:30.384Z,3.55
2024-01-15T08:49:57.709Z,3.59
2024-01-15T08:52:24.686Z,3.60
2024-01-15T08:54:52.178Z,3.56
2024-01-15T08:57:19.237Z,3.61
2024-01-15T08:59:48.146Z,3.58
2024-01-15T09:02:16.083Z,3.60
2024-01-15T09:04:43.180Z,3.61
2024-01-15T09:07:10.212Z,3.65
2024-01-15T09:09:44.710Z,3.68
2024-01-15T09:12:12.367Z,3.99
2024-01-15T09:14:41.435Z,4.24
2024-01-15T09:17:10.879Z,4.18
2024-01-15T09:19:38.288Z,4.13
2024-01-15T09:22:08.259Z,4.11
2024-01-15T09:24:38.062Z,4.06
2024-01-15T09:27:08.888Z,4.03
2024-01-15T09:29:42.781Z,4.01
2024-01-15T09:32:13.071Z,4.00
2024-01-15T09:34:40.568Z,4.01
2024-01-15T09:37:11.748Z,4.01
2024-01-15T09:39:47.567Z,4.04
2024-01-15T09:42:21.066Z,4.05
2024-01-15T09:44:50.296Z,4.05
2024-01-15T09:47:19.098Z,4.07
2024-01-15T09:49:47.399Z,4.12
2024-01-15T09:52:22.590Z,4.18
2024-01-15T09:54:50.499Z,4.14
2024-01-15T09:57:28.152Z,4.16
2024-01-15T09:59:57.186Z,4.20
2024-01-15T10:02:29.647Z,4.16
2024-01-15T10:04:57.062Z,4.16
2024-01-15T10:07:25.702Z,4.17
2024-01-15T10:09:52.982Z,4.21
2024-01-15T10:12:20.649Z,4.26
2024-01-15T10:14:48.040Z,4.28
2024-01-15T10:17:18.877Z,4.32
2024-01-15T10:19:50.833Z,4.37
2024-01-15T10:22:19.841Z,4.34
2024-01-15T10:24:49.215Z,4.33
2024-01-15T10:27:18.719Z,4.32
2024-01-15T10:29:47.166Z,4.34
2024-01-15T10:32:14.188Z,4.34
2024-01-15T10:34:42.996Z,4.29
2024-01-15T10:37:10.804Z,4.28
2024-01-15T10:39:38.440Z,4.26
2024-01-15T10:42:06.782Z,4.32
2024-01-15T10:44:41.900Z,4.36
2024-01-15T10:47:09.162Z,4.37
2024-01-15T10:49:37.477Z,4.37
2024-01-15T10:52:05.244Z,4.39
2024-01-15T10:54:33.680Z,4.39
2024-01-15T10:57:01.263Z,4.38
2024-01-15T10:59:28.316Z,4.39
2024-01-15T11:01:56.777Z,4.42
2024-01-15T11:04:25.560Z,4.40
2024-01-15T11:06:56.028Z,4.39
2024-01-15T11:09:25.621Z,4.39
2024-01-15T11:11:57.324Z,4.42
2024-01-15T11:14:37.455Z,4.40
2024-01-15T11:17:08.447Z,4.42
2024-01-15T11:19:41.832Z,4.48
2024-01-15T11:22:32.507Z,4.54
2024-01-15T11:25:09.227Z,4.59
2024-01-15T11:27:43.748Z,4.63
2024-01-15T11:30:14.005Z,4.61
2024-01-15T11:32:44.752Z,4.65
2024-01-15T11:35:27.070Z,4.67
2024-01-15T11:37:58.701Z,4.74
2024-01-15T11:40:25.624Z,4.79
2024-01-15T11:42:53.935Z,4.82
2024-01-15T11:45:21.722Z,4.85
2024-01-15T11:47:48.676Z,4.84
2024-01-15T11:50:15.942Z,4.83
2024-01-15T11:52:46.015Z,4.81
2024-01-15T11:55:20.340Z,4.81
2024-01-15T11:57:48.341Z,4.81
2024-01-15T12:00:16.282Z,4.88
2024-01-15T12:02:47.678Z,4.88
2024-01-15T12:05:18.422Z,4.94
2024-01-15T12:07:46.402Z,4.92
2024-01-15T12:10:15.331Z,4.93
2024-01-15T12:13:06.831Z,4.98
2024-01-15T12:15:34.170Z,5.05
2024-01-15T12:18:02.095Z,5.08
2024-01-15T12:20:29.487Z,5.12
2024-01-15T12:23:02.432Z,5.14
2024-01-15T12:25:31.747Z,5.18
2024-01-15T12:27:58.962Z,5.21
2024-01-15T12:30:27.184Z,5.23
2024-01-15T12:32:54.152Z,5.26
2024-01-15T12:35:21.123Z,5.27
2024-01-15T12:37:49.140Z,5.31
2024-01-15T12:40:20.879Z,5.33
2024-01-15T12:42:48.059Z,5.31
2024-01-15T12:45:18.056Z,5.29
2024-01-15T12:47:44.957Z,5.31
2024-01-15T12:50:18.359Z,5.31
2024-01-15T12:52:46.987Z,5.32
2024-01-15T12:55:17.113Z,5.33
2024-01-15T12:57:44.123Z,5.33
2024-01-15T13:00:15.103Z,5.34
2024-01-15T13:02:43.784Z,5.35
2024-01-15T13:05:15.862Z,5.40
2024-01-15T13:07:44.698Z,5.45
2024-01-15T13:10:12.211Z,5.49
2024-01-15T13:12:39.906Z,5.51
2024-01-15T13:15:15.303Z,5.49
2024-01-15T13:17:43.822Z,5.50
2024-01-15T13:20:12.887Z,5.54
2024-01-15T13:22:41.517Z,5.52
2024-01-15T13:25:18.293Z,5.59
2024-01-15T13:27:45.506Z,5.61
2024-01-15T13:30:14.431Z,5.57
2024-01-15T13:32:41.484Z,5.58
2024-01-15T13:35:11.439Z,5.62
2024-01-15T13:37:39.643Z,5.58
2024-01-15T13:40:09.016Z,5.53
2024-01-15T13:42:36.122Z,5.54
2024-01-15T13:45:05.145Z,5.49
2024-01-15T13:47:32.114Z,5.47
2024-01-15T13:49:58.901Z,5.47
2024-01-15T13:52:25.917Z,5.43
2024-01-15T13:54:52.759Z,5.48
2024-01-15T13:57:21.446Z,5.50
2024-01-15T13:59:48.690Z,5.56
2024-01-15T14:02:19.498Z,5.58
2024-01-15T14:04:48.825Z,5.61
2024-01-15T14:07:17.150Z,5.63
2024-01-15T14:09:44.243Z,5.63
2024-01-15T14:12:11.193Z,5.63
2024-01-15T14:14:38.099Z,5.64
2024-01-15T14:17:05.592Z,5.63
2024-01-15T14:19:32.548Z,5.58
2024-01-15T14:21:59.641Z,5.56
2024-01-15T14:24:26.565Z,5.55
2024-01-15T14:26:53.623Z,5.52
2024-01-15T14:29:22.328Z,5.50
2024-01-15T14:31:49.410Z,5.55
2024-01-15T14:34:17.052Z,5.57
2024-01-15T14:36:44.056Z,5.57
2024-01-15T14:39:12.815Z,5.61
2024-01-15T14:41:39.852Z,5.58
2024-01-15T14:44:06.963Z,5.57
2024-01-15T14:46:33.911Z,5.56
2024-01-15T14:49:00.813Z,5.58
2024-01-15T14:51:27.881Z,5.55
2024-01-15T14:53:54.673Z,5.48
2024-01-15T14:56:21.826Z,5.49
2024-01-15T14:58:48.715Z,5.47
2024-01-15T15:01:15.596Z,5.45
2024-01-15T15:03:42.869Z,5.40
2024-01-15T15:06:10.294Z,5.43
2024-01-15T15:08:37.915Z,5.41
2024-01-15T15:11:05.376Z,5.39
2024-01-15T15:13:38.529Z,5.41
2024-01-15T15:16:12.601Z,5.39
2024-01-15T15:18:48.004Z,5.31
2024-01-15T15:21:20.854Z,5.28
2024-01-15T15:23:49.141Z,5.25
2024-01-15T15:26:16.275Z,5.23
2024-01-15T15:28:43.109Z,5.23
2024-01-15T15:31:13.130Z,5.20
2024-01-15T15:33:44.681Z,5.12
2024-01-15T15:36:11.819Z,5.08
2024-01-15T15:38:42.450Z,5.05
2024-01-15T15:41:12.796Z,5.00
2024-01-15T15:43:39.672Z,4.98
2024-01-15T15:46:07.048Z,4.94
2024-01-15T15:48:33.952Z,4.95
2024-01-15T15:51:02.568Z,4.94
2024-01-15T15:53:30.649Z,4.92
2024-01-15T15:56:08.078Z,4.92
2024-01-15T15:58:38.738Z,4.88
2024-01-15T16:01:05.795Z,4.86
2024-01-15T16:03:32.932Z,4.86
2024-01-15T16:05:59.835Z,4.86
2024-01-15T16:08:26.721Z,4.73
2024-01-15T16:10:53.845Z,4.74
2024-01-15T16:13:20.955Z,4.76
2024-01-15T16:15:48.370Z,4.70
2024-01-15T16:23:19.820Z,4.70
2024-01-15T16:23:35.049Z,4.67
2024-01-15T16:24:11.620Z,4.70
2024-01-15T16:26:39.244Z,4.66
2024-01-15T16:29:07.006Z,4.65
2024-01-15T16:31:33.995Z,4.65
2024-01-15T16:34:05.118Z,4.64
2024-01-15T16:36:34.187Z,4.61
2024-01-15T16:39:23.564Z,4.54
2024-01-15T16:41:50.416Z,4.52
2024-01-15T16:44:17.658Z,4.51
2024-01-15T16:46:44.545Z,4.53
2024-01-15T16:49:13.176Z,4.45
2024-01-15T16:51:40.197Z,4.44
2024-01-15T16:54:07.006Z,4.43
2024-01-15T16:56:33.845Z,4.42
2024-01-15T16:59:00.737Z,4.39
2024-01-15T17:01:27.601Z,4.37
2024-01-15T17:03:54.464Z,4.33
2024-01-15T17:06:21.241Z,4.36
2024-01-15T17:08:48.052Z,4.37
2024-01-15T17:11:21.532Z,4.34
2024-01-15T17:13:48.554Z,4.35
2024-01-15T17:16:15.309Z,4.34
2024-01-15T17:18:42.212Z,4.32
2024-01-15T17:21:12.588Z,4.32
2024-01-15T17:23:39.671Z,4.32
2024-01-15T17:26:06.792Z,4.26
2024-01-15T17:28:34.627Z,4.25
2024-01-15T17:31:01.460Z,4.23
2024-01-15T17:33:28.473Z,4.19
2024-01-15T17:35:57.720Z,4.18
2024-01-15T17:38:24.925Z,4.17
2024-01-15T17:40:54.568Z,4.16
2024-01-15T17:43:23.252Z,4.15
2024-01-15T17:45:56.095Z,4.15
2024-01-15T17:48:23.099Z,4.15
2024-01-15T17:50:50.180Z,4.12
2024-01-15T17:53:16.996Z,4.10
2024-01-15T17:55:44.000Z,4.10
2024-01-15T17:58:10.958Z,4.06
2024-01-15T18:00:38.138Z,4.02
2024-01-15T18:03:04.985Z,4.00
2024-01-15T18:05:32.093Z,3.99
2024-01-15T18:07:58.950Z,3.93
2024-01-15T18:10:26.184Z,3.96
2024-01-15T18:12:53.276Z,3.94
2024-01-15T18:15:20.075Z,3.91
2024-01-15T18:17:47.316Z,3.92
2024-01-15T18:20:14.820Z,3.93
2024-01-15T18:22:41.840Z,3.94
2024-01-15T18:25:10.318Z,3.90
2024-01-15T18:27:37.213Z,3.88
2024-01-15T18:30:04.233Z,3.89
2024-01-15T18:32:31.314Z,3.86
2024-01-15T18:34:58.467Z,3.84
2024-01-15T18:37:26.663Z,3.81
2024-01-15T18:39:54.147Z,3.83
2024-01-15T18:42:21.100Z,3.80
2024-01-15T18:44:50.725Z,3.80
2024-01-15T18:47:17.754Z,3.77
2024-01-15T18:49:45.235Z,3.75
2024-01-15T18:52:16.289Z,3.74
2024-01-15T18:54:43.982Z,3.68
2024-01-15T18:57:11.109Z,3.65
2024-01-15T18:59:39.092Z,3.64
2024-01-15T19:02:06.232Z,3.60
2024-01-15T19:04:33.207Z,3.59
2024-01-15T19:07:00.025Z,3.60
2024-01-15T19:09:27.359Z,3.64
2024-01-15T19:11:55.232Z,3.64
2024-01-15T19:14:22.226Z,3.65
2024-01-15T19:16:49.625Z,3.63
2024-01-15T19:19:16.852Z,3.63
2024-01-15T19:21:47.559Z,3.62
2024-01-15T19:24:15.809Z,3.57
2024-01-15T19:26:42.844Z,3.54
2024-01-15T19:29:09.862Z,3.55
2024-01-15T19:31:38.484Z,3.51
2024-01-15T19:34:05.693Z,3.45
2024-01-15T19:36:33.158Z,3.45
2024-01-15T19:39:00.253Z,3.43
2024-01-15T19:41:29.466Z,3.40
2024-01-15T19:43:56.413Z,3.38
2024-01-15T19:46:23.200Z,3.38
2024-01-15T19:48:50.259Z,3.33
2024-01-15T19:51:17.196Z,3.29
2024-01-15T19:53:44.261Z,3.25
2024-01-15T19:56:11.203Z,3.23
2024-01-15T19:58:38.627Z,3.20
2024-01-15T20:01:14.901Z,3.22
2024-01-15T20:03:42.679Z,3.26
2024-01-15T20:06:13.074Z,3.27
2024-01-15T20:08:43.858Z,3.26
2024-01-15T20:11:16.363Z,3.24
2024-01-15T20:13:43.356Z,3.24
2024-01-15T20:16:10.841Z,3.23
2024-01-15T20:18:38.168Z,3.25
2024-01-15T20:21:05.141Z,3.26
2024-01-15T20:23:46.467Z,3.23
2024-01-15T20:26:21.805Z,3.18
2024-01-15T20:28:48.963Z,3.15
2024-01-15T20:31:15.706Z,3.17
2024-01-15T20:33:43.104Z,3.19
2024-01-15T20:36:12.016Z,3.16
2024-01-15T20:38:40.022Z,3.12
2024-01-15T20:41:09.561Z,3.16
2024-01-15T20:43:36.627Z,3.13
2024-01-15T20:46:03.635Z,3.13
2024-01-15T20:48:31.152Z,3.14
2024-01-15T20:50:59.553Z,3.13
2024-01-15T20:53:26.823Z,3.12
2024-01-15T20:55:53.676Z,3.13
2024-01-15T20:58:24.108Z,3.09
2024-01-15T21:00:51.425Z,3.09
2024-01-15T21:03:18.995Z,3.09
2024-01-15T21:05:45.978Z,3.07
2024-01-15T21:08:12.985Z,3.05
2024-01-15T21:10:40.046Z,3.09
2024-01-15T21:13:07.655Z,3.09
2024-01-15T21:15:34.725Z,3.07
2024-01-15T21:18:01.828Z,3.03
2024-01-15T21:20:28.674Z,3.01
2024-01-15T21:22:55.654Z,3.00
2024-01-15T21:25:22.530Z,2.99
2024-01-15T21:27:49.377Z,2.97
2024-01-15T21:30:19.143Z,2.97
2024-01-15T21:32:48.301Z,2.91
2024-01-15T21:35:19.769Z,2.90
2024-01-15T21:37:49.811Z,2.91
2024-01-15T21:40:17.711Z,2.93
2024-01-15T21:42:45.628Z,2.94
2024-01-15T21:45:13.832Z,2.92
2024-01-15T21:47:46.986Z,2.91
2024-01-15T21:50:14.061Z,2.91
2024-01-15T21:52:47.304Z,2.94
2024-01-15T21:55:17.150Z,2.95
2024-01-15T21:57:47.758Z,2.98
2024-01-15T22:00:17.031Z,2.99
2024-01-15T22:02:46.216Z,3.00
2024-01-15T22:05:13.649Z,2.97
2024-01-15T22:07:45.186Z,2.97
2024-01-15T22:10:18.761Z,2.96
2024-01-15T22:12:46.779Z,2.99
2024-01-15T22:15:22.006Z,2.98
2024-01-15T22:17:57.089Z,2.92
2024-01-15T22:20:24.101Z,2.85
2024-01-15T22:22:51.081Z,2.76
2024-01-15T22:25:18.138Z,2.78
2024-01-15T22:27:44.957Z,2.74
2024-01-15T22:30:12.159Z,2.76
2024-01-15T22:32:39.427Z,2.73
2024-01-15T22:35:12.270Z,2.72
2024-01-15T22:37:39.351Z,2.72
2024-01-15T22:40:07.204Z,2.76
2024-01-15T22:42:34.051Z,2.77
2024-01-15T22:45:01.296Z,2.71
2024-01-15T22:47:28.427Z,2.62
2024-01-15T22:49:55.408Z,2.55
2024-01-15T22:52:22.878Z,2.54
2024-01-15T22:54:50.778Z,2.56
2024-01-15T22:57:17.660Z,2.57
2024-01-15T22:59:44.621Z,2.58
2024-01-15T23:02:11.764Z,2.55
2024-01-15T23:04:40.141Z,2.57
2024-01-15T23:07:07.201Z,2.57
2024-01-15T23:09:34.261Z,2.56
2024-01-15T23:12:01.111Z,2.57
2024-01-15T23:14:28.078Z,2.51
2024-01-15T23:16:54.907Z,2.50
2024-01-15T23:19:21.768Z,2.51
2024-01-15T23:21:48.599Z,2.55
2024-01-15T23:24:15.479Z,2.54
2024-01-15T23:26:42.472Z,2.50
2024-01-15T23:29:09.287Z,2.43
2024-01-15T23:31:40.544Z,2.39
2024-01-15T23:34:07.586Z,2.38
2024-01-15T23:36:34.660Z,2.41
2024-01-15T23:39:01.509Z,2.42
2024-01-15T23:41:31.817Z,2.47
2024-01-15T23:43:58.774Z,2.47
2024-01-15T23:46:25.665Z,2.46
2024-01-15T23:48:52.680Z,2.44
2024-01-15T23:51:26.117Z,2.45
2024-01-15T23:53:52.946Z,2.40
2024-01-15T23:56:19.852Z,2.42
2024-01-15T23:58:46.744Z,2.44
